Time;durP1;ratioP1;P1;durP2;ratioP2;P2;SDS_P1;SDS_P2;PMS_P1;PMS_P2;Temp;Humidity;BMP_temperature;BMP_pressure;BME280_temperature;BME280_humidity;BME280_pressure;Samples;Min_cycle;Max_cycle;Signal;HPM_P1;HPM_P2
2022/12/11 00:01:20;;;;;;;;;;;-1.70;99.90;;;;;;5015968;28;19925;-76
2022/12/11 00:03:52;;;;;;;;;;;-1.70;99.90;;;;;;5038702;28;19928;-75
2022/12/11 00:06:23;;;;;;;;;;;-1.70;99.90;;;;;;4990733;28;19948;-78
2022/12/11 00:08:55;;;;;;;;;;;-1.70;99.90;;;;;;5043405;28;19925;-75
2022/12/11 00:11:26;;;;;;;;;;;-1.60;99.90;;;;;;5032560;28;19975;-74
2022/12/11 00:13:58;;;;;;;;;;;-1.70;99.90;;;;;;5008233;28;19979;-75
2022/12/11 00:16:29;;;;;;;;;;;-1.70;99.90;;;;;;5033841;28;20042;-73
2022/12/11 00:19:01;;;;;;;;;;;-1.60;99.90;;;;;;5032388;28;19929;-75
2022/12/11 00:21:33;;;;;;;;;;;-1.70;99.90;;;;;;5035923;28;20273;-74
2022/12/11 00:24:05;;;;;;;;;;;-1.70;99.90;;;;;;5039604;28;19925;-74
2022/12/11 00:26:37;;;;;;;;;;;-1.70;99.90;;;;;;5014413;28;19929;-74
2022/12/11 00:29:13;;;;;;;;;;;-1.70;99.90;;;;;;5029628;28;19943;-74
2022/12/11 00:31:44;;;;;;;;;;;-1.70;99.90;;;;;;5040327;28;20006;-74
2022/12/11 00:34:16;;;;;;;;;;;-1.70;99.90;;;;;;5039397;28;19932;-74
2022/12/11 00:36:48;;;;;;;;;;;-1.70;99.90;;;;;;5034374;28;19932;-76
2022/12/11 00:39:19;;;;;;;;;;;-1.60;99.90;;;;;;5038033;28;19924;-74
2022/12/11 00:41:51;;;;;;;;;;;-1.60;99.90;;;;;;5043722;28;20403;-75
2022/12/11 00:44:22;;;;;;;;;;;-1.60;99.90;;;;;;5040144;28;19967;-75
2022/12/11 00:46:54;;;;;;;;;;;-1.60;99.90;;;;;;5035522;28;19925;-75
2022/12/11 00:49:25;;;;;;;;;;;-1.60;99.90;;;;;;5037245;28;19971;-74
2022/12/11 00:51:57;;;;;;;;;;;-1.60;99.90;;;;;;5043621;28;19925;-75
2022/12/11 00:54:29;;;;;;;;;;;-1.60;99.90;;;;;;5038651;28;19964;-75
2022/12/11 00:57:01;;;;;;;;;;;-1.60;99.90;;;;;;5017183;28;19925;-76
2022/12/11 00:59:33;;;;;;;;;;;-1.60;99.90;;;;;;5038052;28;20414;-75
2022/12/11 01:02:04;;;;;;;;;;;-1.60;99.90;;;;;;5018352;28;19986;-73
2022/12/11 01:04:36;;;;;;;;;;;-1.60;99.90;;;;;;5030638;28;19936;-74
2022/12/11 01:07:07;;;;;;;;;;;-1.60;99.90;;;;;;5023440;28;19925;-76
2022/12/11 01:12:43;;;;;;;;;;;-1.60;99.90;;;;;;4993012;28;19933;-76
2022/12/11 01:15:15;;;;;;;;;;;-1.50;99.90;;;;;;5040775;28;19925;-74
2022/12/11 01:17:47;;;;;;;;;;;-1.60;99.90;;;;;;5044943;28;19925;-74
2022/12/11 01:20:19;;;;;;;;;;;-1.60;99.90;;;;;;5035987;28;19933;-73
2022/12/11 01:22:51;;;;;;;;;;;-1.60;99.90;;;;;;5039714;28;20533;-75
2022/12/11 01:25:24;;;;;;;;;;;-1.60;99.90;;;;;;5033940;28;19940;-77
2022/12/11 01:27:55;;;;;;;;;;;-1.60;99.90;;;;;;5032831;28;19925;-74
2022/12/11 01:30:27;;;;;;;;;;;-1.60;99.90;;;;;;5038108;28;19952;-75
2022/12/11 01:32:59;;;;;;;;;;;-1.60;99.90;;;;;;5035772;28;20399;-74
2022/12/11 01:35:31;;;;;;;;;;;-1.60;99.90;;;;;;5040223;28;19975;-77
2022/12/11 01:38:03;;;;;;;;;;;-1.60;99.90;;;;;;5040330;28;20291;-75
2022/12/11 01:40:34;;;;;;;;;;;-1.60;99.90;;;;;;5020671;28;19947;-75
2022/12/11 01:43:08;;;;;;;;;;;-1.60;99.90;;;;;;5039048;28;19960;-74
2022/12/11 01:45:44;;;;;;;;;;;-1.60;99.90;;;;;;5032540;28;19926;-75
2022/12/11 01:48:21;;;;;;;;;;;-1.60;99.90;;;;;;5040021;28;20339;-76
2022/12/11 01:51:01;;;;;;;;;;;-1.60;99.90;;;;;;5039442;28;19930;-73
2022/12/11 01:53:39;;;;;;;;;;;-1.70;99.90;;;;;;5040845;28;19930;-75
2022/12/11 01:56:11;;;;;;;;;;;-1.60;99.90;;;;;;5002079;28;19976;-74
2022/12/11 01:58:47;;;;;;;;;;;-1.60;99.90;;;;;;5024611;28;19979;-75
2022/12/11 02:01:23;;;;;;;;;;;-1.60;99.90;;;;;;5042043;28;19929;-74
2022/12/11 02:03:55;;;;;;;;;;;-1.70;99.90;;;;;;5033307;28;20354;-74
2022/12/11 02:06:30;;;;;;;;;;;-1.70;99.90;;;;;;5035517;28;19929;-75
2022/12/11 02:09:02;;;;;;;;;;;-1.70;99.90;;;;;;5041671;28;19932;-76
2022/12/11 02:11:46;;;;;;;;;;;-1.60;99.90;;;;;;5033989;28;19945;-76
2022/12/11 02:14:17;;;;;;;;;;;-1.60;99.90;;;;;;5039360;28;19925;-75
2022/12/11 02:16:57;;;;;;;;;;;-1.60;99.90;;;;;;5046259;28;20443;-75
2022/12/11 02:19:53;;;;;;;;;;;-1.60;99.90;;;;;;5033002;28;20347;-74
2022/12/11 02:22:32;;;;;;;;;;;-1.60;99.90;;;;;;5021225;28;19925;-75
2022/12/11 02:25:23;;;;;;;;;;;-1.60;99.90;;;;;;5022260;28;20037;-75
2022/12/11 02:28:09;;;;;;;;;;;-1.60;99.90;;;;;;4990448;28;19970;-75
2022/12/11 02:30:41;;;;;;;;;;;-1.70;99.90;;;;;;5034431;28;19929;-74
2022/12/11 02:33:14;;;;;;;;;;;-1.70;99.90;;;;;;5043279;28;19983;-74
2022/12/11 02:35:46;;;;;;;;;;;-1.80;99.90;;;;;;5037781;28;20417;-75
2022/12/11 02:38:24;;;;;;;;;;;-1.90;99.90;;;;;;5036898;28;19976;-75
2022/12/11 02:40:56;;;;;;;;;;;-1.90;99.90;;;;;;5028701;28;19972;-74
2022/12/11 02:43:30;;;;;;;;;;;-2.00;99.90;;;;;;5035104;28;20019;-74
2022/12/11 02:45:57;;;;;;;;;;;-2.00;99.90;;;;;;5018803;28;19955;-74
2022/12/11 02:48:24;;;;;;;;;;;-2.00;99.90;;;;;;5024577;28;19925;-74
2022/12/11 02:50:56;;;;;;;;;;;-2.00;99.90;;;;;;5035380;28;19960;-77
2022/12/11 02:53:29;;;;;;;;;;;-2.00;99.90;;;;;;5032485;28;19929;-74
2022/12/11 02:56:09;;;;;;;;;;;-2.00;99.90;;;;;;5034513;28;19953;-75
2022/12/11 02:58:46;;;;;;;;;;;-2.00;99.90;;;;;;5017225;28;20004;-74
2022/12/11 03:01:18;;;;;;;;;;;-2.00;99.90;;;;;;5037058;28;19961;-74
2022/12/11 03:03:49;;;;;;;;;;;-2.00;99.90;;;;;;5032871;28;19929;-74
2022/12/11 03:06:23;;;;;;;;;;;-2.00;99.90;;;;;;5034191;28;19925;-74
2022/12/11 03:08:54;;;;;;;;;;;-2.00;99.90;;;;;;5047405;28;19948;-74
2022/12/11 03:11:26;;;;;;;;;;;-1.90;99.90;;;;;;5041982;28;19929;-73
2022/12/11 03:13:58;;;;;;;;;;;-1.90;99.90;;;;;;5037210;28;20392;-76
2022/12/11 03:16:54;;;;;;;;;;;-1.90;99.90;;;;;;5018534;28;20385;-73
2022/12/11 03:19:31;;;;;;;;;;;-1.90;99.90;;;;;;5030992;28;19925;-75
2022/12/11 03:22:11;;;;;;;;;;;-1.80;99.90;;;;;;5024186;28;19925;-74
2022/12/11 03:24:44;;;;;;;;;;;-1.80;99.90;;;;;;5033474;28;19983;-74
2022/12/11 03:27:35;;;;;;;;;;;-1.80;99.90;;;;;;5036852;28;19929;-76
2022/12/11 03:30:09;;;;;;;;;;;-1.80;99.90;;;;;;5017637;28;19975;-72
2022/12/11 03:32:54;;;;;;;;;;;-1.80;99.90;;;;;;5030418;28;19996;-74
2022/12/11 03:35:29;;;;;;;;;;;-1.80;99.90;;;;;;5025961;28;19933;-74
2022/12/11 03:38:04;;;;;;;;;;;-1.80;99.90;;;;;;5038540;28;19991;-74
2022/12/11 03:40:37;;;;;;;;;;;-1.80;99.90;;;;;;5030270;28;20176;-74
2022/12/11 03:43:10;;;;;;;;;;;-1.80;99.90;;;;;;5041043;28;19925;-75
2022/12/11 03:45:42;;;;;;;;;;;-1.80;99.90;;;;;;5033347;28;19936;-74
2022/12/11 03:48:14;;;;;;;;;;;-1.80;99.90;;;;;;5030590;28;19925;-75
2022/12/11 03:50:46;;;;;;;;;;;-1.80;99.90;;;;;;5026842;28;20055;-76
2022/12/11 03:53:18;;;;;;;;;;;-1.80;99.90;;;;;;5022745;28;19925;-74
2022/12/11 03:55:50;;;;;;;;;;;-1.90;99.90;;;;;;5015808;28;20053;-77
2022/12/11 03:58:22;;;;;;;;;;;-1.80;99.90;;;;;;5035589;28;19925;-75
2022/12/11 04:00:53;;;;;;;;;;;-1.80;99.90;;;;;;5020634;28;19929;-76
2022/12/11 04:03:25;;;;;;;;;;;-1.80;99.90;;;;;;5042214;28;19925;-74
2022/12/11 04:05:57;;;;;;;;;;;-1.80;99.90;;;;;;5031124;28;19929;-76
2022/12/11 04:08:28;;;;;;;;;;;-1.90;99.90;;;;;;5023843;28;19993;-74
2022/12/11 04:16:42;;;;;;;;;;;-1.80;99.90;;;;;;5021950;28;19924;-75
2022/12/11 04:24:54;;;;;;;;;;;-1.80;99.90;;;;;;5030882;28;19926;-75
2022/12/11 04:30:17;;;;;;;;;;;-1.90;99.90;;;;;;5038042;28;20416;-74
2022/12/11 04:32:49;;;;;;;;;;;-1.90;99.90;;;;;;5036876;28;20376;-75
2022/12/11 04:35:21;;;;;;;;;;;-1.90;99.90;;;;;;5025639;28;19948;-75
2022/12/11 04:37:53;;;;;;;;;;;-1.90;99.90;;;;;;5035803;28;19925;-74
2022/12/11 04:40:24;;;;;;;;;;;-1.90;99.90;;;;;;5036628;28;19925;-74
2022/12/11 04:42:56;;;;;;;;;;;-2.00;99.90;;;;;;5042196;28;19976;-75
2022/12/11 04:45:27;;;;;;;;;;;-1.90;99.90;;;;;;5044889;28;19932;-75
2022/12/11 04:47:59;;;;;;;;;;;-1.90;99.90;;;;;;5039623;28;20489;-73
2022/12/11 04:50:30;;;;;;;;;;;-2.00;99.90;;;;;;5040045;28;19991;-75
2022/12/11 04:53:02;;;;;;;;;;;-1.90;99.90;;;;;;5037927;28;19937;-75
2022/12/11 04:55:33;;;;;;;;;;;-2.00;99.90;;;;;;5032681;28;20635;-74
2022/12/11 04:58:05;;;;;;;;;;;-1.90;99.90;;;;;;5040525;28;19971;-76
2022/12/11 05:00:36;;;;;;;;;;;-2.00;99.90;;;;;;5042811;28;19944;-76
2022/12/11 05:03:08;;;;;;;;;;;-1.90;99.90;;;;;;5046820;28;19925;-74
2022/12/11 05:05:40;;;;;;;;;;;-2.00;99.90;;;;;;5040315;28;19933;-73
2022/12/11 05:08:11;;;;;;;;;;;-2.00;99.90;;;;;;5037079;28;19936;-74
2022/12/11 05:10:43;;;;;;;;;;;-2.00;99.90;;;;;;5032539;28;20338;-74
2022/12/11 05:13:14;;;;;;;;;;;-2.00;99.90;;;;;;5034240;28;19926;-74
2022/12/11 05:15:46;;;;;;;;;;;-2.00;99.90;;;;;;5046426;28;19991;-74
2022/12/11 05:18:18;;;;;;;;;;;-2.00;99.90;;;;;;5038460;28;19932;-73
2022/12/11 05:20:56;;;;;;;;;;;-2.00;99.90;;;;;;5043614;28;19925;-74
2022/12/11 05:23:23;;;;;;;;;;;-2.00;99.90;;;;;;5042290;28;20346;-73
2022/12/11 05:25:56;;;;;;;;;;;-2.00;99.90;;;;;;5024352;28;19929;-74
2022/12/11 05:28:28;;;;;;;;;;;-2.00;99.90;;;;;;5037622;28;19925;-73
2022/12/11 05:31:01;;;;;;;;;;;-2.00;99.90;;;;;;5029799;28;20399;-73
2022/12/11 05:33:33;;;;;;;;;;;-2.00;99.90;;;;;;5037625;28;19952;-74
2022/12/11 05:36:05;;;;;;;;;;;-2.00;99.90;;;;;;5027650;28;20074;-74
2022/12/11 05:38:36;;;;;;;;;;;-2.00;99.90;;;;;;5026394;28;19978;-74
2022/12/11 05:41:11;;;;;;;;;;;-2.10;99.90;;;;;;5022336;28;19929;-72
2022/12/11 05:43:43;;;;;;;;;;;-2.10;99.90;;;;;;5037925;28;19929;-74
2022/12/11 05:46:16;;;;;;;;;;;-2.10;99.90;;;;;;5038096;28;19955;-73
2022/12/11 05:48:48;;;;;;;;;;;-2.20;99.90;;;;;;5029230;28;19925;-74
2022/12/11 05:51:20;;;;;;;;;;;-2.20;99.90;;;;;;5039424;28;19971;-74
2022/12/11 05:53:52;;;;;;;;;;;-2.20;99.90;;;;;;5006643;28;20428;-74
2022/12/11 05:56:25;;;;;;;;;;;-2.20;99.90;;;;;;5038585;28;19979;-74
2022/12/11 05:58:57;;;;;;;;;;;-2.30;99.90;;;;;;5039630;28;19925;-74
2022/12/11 06:01:34;;;;;;;;;;;-2.30;99.90;;;;;;5010705;28;19984;-74
2022/12/11 06:04:06;;;;;;;;;;;-2.40;99.90;;;;;;5038419;28;19979;-74
2022/12/11 06:06:39;;;;;;;;;;;-2.50;99.90;;;;;;5032522;28;20291;-73
2022/12/11 06:09:14;;;;;;;;;;;-2.50;99.90;;;;;;5040692;28;20366;-73
2022/12/11 06:11:46;;;;;;;;;;;-2.60;99.90;;;;;;5025140;28;19925;-73
2022/12/11 06:14:17;;;;;;;;;;;-2.80;99.90;;;;;;5036451;28;19925;-72
2022/12/11 06:16:49;;;;;;;;;;;-2.90;99.90;;;;;;5021776;28;19929;-75
2022/12/11 06:19:21;;;;;;;;;;;-2.90;99.90;;;;;;5035892;28;19929;-75
2022/12/11 06:21:52;;;;;;;;;;;-3.00;99.90;;;;;;5032753;28;19987;-75
2022/12/11 06:24:24;;;;;;;;;;;-3.00;99.90;;;;;;5020359;28;20096;-73
2022/12/11 06:26:55;;;;;;;;;;;-3.00;99.90;;;;;;5029510;28;19979;-75
2022/12/11 06:29:27;;;;;;;;;;;-3.00;99.90;;;;;;5040436;28;19925;-75
2022/12/11 06:31:59;;;;;;;;;;;-3.00;99.90;;;;;;5046412;28;20392;-76
2022/12/11 06:34:30;;;;;;;;;;;-3.00;99.90;;;;;;5025834;28;19996;-72
2022/12/11 06:37:02;;;;;;;;;;;-3.00;99.90;;;;;;5035329;28;19925;-74
2022/12/11 06:39:33;;;;;;;;;;;-3.00;99.90;;;;;;5024718;28;19925;-75
2022/12/11 06:42:05;;;;;;;;;;;-3.00;99.90;;;;;;5045869;28;19924;-74
2022/12/11 06:44:36;;;;;;;;;;;-3.00;99.90;;;;;;5023911;28;19976;-73
2022/12/11 06:47:08;;;;;;;;;;;-3.10;99.90;;;;;;5022001;28;19925;-74
2022/12/11 06:49:39;;;;;;;;;;;-3.10;99.90;;;;;;5035438;28;19933;-72
2022/12/11 06:52:11;;;;;;;;;;;-3.10;99.90;;;;;;5036542;28;19944;-74
2022/12/11 06:54:43;;;;;;;;;;;-3.10;99.90;;;;;;5046746;28;19979;-74
2022/12/11 06:57:14;;;;;;;;;;;-3.10;99.90;;;;;;5041685;28;19925;-73
2022/12/11 06:59:46;;;;;;;;;;;-3.10;99.90;;;;;;5034948;28;20418;-73
2022/12/11 07:02:18;;;;;;;;;;;-3.10;99.90;;;;;;5040099;28;19925;-75
2022/12/11 07:04:50;;;;;;;;;;;-3.00;99.90;;;;;;5031129;28;19925;-74
2022/12/11 07:07:22;;;;;;;;;;;-3.00;99.90;;;;;;5021409;28;19929;-74
2022/12/11 07:09:53;;;;;;;;;;;-3.00;99.90;;;;;;5035978;28;19925;-74
2022/12/11 07:12:25;;;;;;;;;;;-3.00;99.90;;;;;;5015655;28;20347;-74
2022/12/11 07:14:56;;;;;;;;;;;-3.10;99.90;;;;;;5005068;28;19929;-75
2022/12/11 07:17:28;;;;;;;;;;;-3.10;99.90;;;;;;5029043;28;19925;-74
2022/12/11 07:20:00;;;;;;;;;;;-3.10;99.90;;;;;;5037037;28;19925;-74
2022/12/11 07:22:27;;;;;;;;;;;-3.10;99.90;;;;;;5021292;28;19928;-74
2022/12/11 07:24:59;;;;;;;;;;;-3.10;99.90;;;;;;5042096;28;19925;-73
2022/12/11 07:27:30;;;;;;;;;;;-3.10;99.90;;;;;;5027609;28;19925;-74
2022/12/11 07:30:03;;;;;;;;;;;-3.10;99.90;;;;;;5033271;28;19929;-74
2022/12/11 07:32:34;;;;;;;;;;;-3.10;99.90;;;;;;5033383;28;20759;-75
2022/12/11 07:35:06;;;;;;;;;;;-3.20;99.90;;;;;;5052309;28;19929;-74
2022/12/11 07:37:39;;;;;;;;;;;-3.30;99.90;;;;;;5033749;28;19984;-74
2022/12/11 07:40:10;;;;;;;;;;;-3.40;99.90;;;;;;5046108;28;19979;-74
2022/12/11 07:42:43;;;;;;;;;;;-3.40;99.90;;;;;;5023870;28;19924;-74
2022/12/11 07:45:14;;;;;;;;;;;-3.50;99.90;;;;;;5025888;28;19925;-74
2022/12/11 07:47:46;;;;;;;;;;;-3.40;99.90;;;;;;5032136;28;19929;-74
2022/12/11 07:50:18;;;;;;;;;;;-3.40;99.90;;;;;;5046085;28;19932;-74
2022/12/11 07:52:49;;;;;;;;;;;-3.40;99.90;;;;;;5042140;28;19924;-73
2022/12/11 07:55:21;;;;;;;;;;;-3.50;99.90;;;;;;5052281;28;19936;-74
2022/12/11 07:57:52;;;;;;;;;;;-3.60;99.90;;;;;;5050058;28;19925;-74
2022/12/11 08:00:24;;;;;;;;;;;-3.60;99.90;;;;;;5036068;28;19929;-75
2022/12/11 08:02:55;;;;;;;;;;;-3.60;99.90;;;;;;5032403;28;19986;-72
2022/12/11 08:05:27;;;;;;;;;;;-3.60;99.90;;;;;;5031273;28;20388;-74
2022/12/11 08:07:59;;;;;;;;;;;-3.60;99.90;;;;;;5000898;28;20334;-74
2022/12/11 08:10:30;;;;;;;;;;;-3.50;99.90;;;;;;5035456;28;20664;-75
2022/12/11 08:13:02;;;;;;;;;;;-3.40;99.90;;;;;;5039517;28;19928;-73
2022/12/11 08:15:34;;;;;;;;;;;-3.40;99.90;;;;;;5021548;28;19932;-74
2022/12/11 08:18:06;;;;;;;;;;;-3.30;99.90;;;;;;4994644;28;20380;-76
2022/12/11 08:20:38;;;;;;;;;;;-3.20;99.90;;;;;;5011398;28;19925;-76
2022/12/11 08:23:10;;;;;;;;;;;-3.20;99.90;;;;;;5046045;28;20387;-74
2022/12/11 08:25:41;;;;;;;;;;;-3.30;99.90;;;;;;5032919;28;19983;-73
2022/12/11 08:28:13;;;;;;;;;;;-3.30;99.90;;;;;;5031543;28;19925;-75
2022/12/11 08:30:46;;;;;;;;;;;-3.20;99.90;;;;;;5015556;28;19972;-74
2022/12/11 08:33:17;;;;;;;;;;;-3.10;99.90;;;;;;5023548;28;19924;-73
2022/12/11 08:35:49;;;;;;;;;;;-3.00;99.90;;;;;;5018366;28;20292;-75
2022/12/11 08:38:20;;;;;;;;;;;-2.90;99.90;;;;;;5046731;28;20171;-72
2022/12/11 08:40:52;;;;;;;;;;;-2.90;99.90;;;;;;5018240;28;19933;-74
2022/12/11 08:43:24;;;;;;;;;;;-2.90;99.90;;;;;;4998475;28;20351;-74
2022/12/11 08:45:55;;;;;;;;;;;-2.90;99.90;;;;;;5025023;28;19929;-74
2022/12/11 08:48:27;;;;;;;;;;;-2.90;99.90;;;;;;5043921;28;19924;-76
2022/12/11 08:51:00;;;;;;;;;;;-2.80;99.90;;;;;;5033320;28;19932;-76
2022/12/11 08:53:32;;;;;;;;;;;-2.80;99.90;;;;;;5029982;28;19978;-74
2022/12/11 08:56:05;;;;;;;;;;;-2.60;99.90;;;;;;5044537;28;20272;-73
2022/12/11 08:58:36;;;;;;;;;;;-2.40;99.90;;;;;;5019897;28;19979;-74
2022/12/11 09:01:10;;;;;;;;;;;-2.20;99.90;;;;;;5039141;28;19935;-74
2022/12/11 09:03:41;;;;;;;;;;;-2.10;99.90;;;;;;5018046;28;20203;-74
2022/12/11 09:06:14;;;;;;;;;;;-2.10;99.90;;;;;;5026969;28;19925;-73
2022/12/11 09:08:46;;;;;;;;;;;-2.00;99.90;;;;;;5032895;28;19925;-74
2022/12/11 09:11:22;;;;;;;;;;;-2.00;99.90;;;;;;5034737;28;19925;-72
2022/12/11 09:13:54;;;;;;;;;;;-2.00;99.90;;;;;;5026206;28;19983;-74
2022/12/11 09:16:26;;;;;;;;;;;-2.10;99.90;;;;;;5027528;28;20358;-74
2022/12/11 09:18:58;;;;;;;;;;;-2.20;99.90;;;;;;5023634;28;19925;-75
2022/12/11 09:21:30;;;;;;;;;;;-2.30;99.90;;;;;;5010383;28;19933;-74
2022/12/11 09:24:02;;;;;;;;;;;-2.50;99.90;;;;;;5016358;28;19991;-74
2022/12/11 09:26:29;;;;;;;;;;;-2.50;99.90;;;;;;5034215;28;19940;-75
2022/12/11 09:29:02;;;;;;;;;;;-2.40;99.90;;;;;;5016270;28;19932;-73
2022/12/11 09:31:34;;;;;;;;;;;-2.40;99.90;;;;;;5038005;28;19932;-74
2022/12/11 09:34:07;;;;;;;;;;;-2.40;99.90;;;;;;5038234;28;19925;-74
2022/12/11 09:36:34;;;;;;;;;;;-2.20;99.90;;;;;;5029787;28;20413;-74
2022/12/11 09:39:06;;;;;;;;;;;-2.20;99.90;;;;;;4999142;28;19926;-74
2022/12/11 09:41:50;;;;;;;;;;;-2.10;99.90;;;;;;5038426;28;19925;-73
2022/12/11 09:44:31;;;;;;;;;;;-2.00;99.90;;;;;;5039424;28;19933;-73
2022/12/11 09:47:11;;;;;;;;;;;-2.00;99.90;;;;;;5017075;28;19959;-74
2022/12/11 09:49:43;;;;;;;;;;;-2.00;99.90;;;;;;5037379;28;20518;-74
2022/12/11 09:52:22;;;;;;;;;;;-2.00;99.90;;;;;;5045008;28;19933;-73
2022/12/11 09:54:56;;;;;;;;;;;-2.00;99.90;;;;;;5013080;28;19971;-73
2022/12/11 09:57:29;;;;;;;;;;;-2.00;99.90;;;;;;5029485;28;20702;-76
2022/12/11 10:00:04;;;;;;;;;;;-2.10;99.90;;;;;;5037905;28;20504;-74
2022/12/11 10:02:39;;;;;;;;;;;-2.10;99.90;;;;;;5023512;28;20342;-75
2022/12/11 10:05:11;;;;;;;;;;;-2.30;99.90;;;;;;5031512;28;20289;-75
2022/12/11 10:08:01;;;;;;;;;;;-2.30;99.90;;;;;;5023603;28;19941;-73
2022/12/11 10:10:46;;;;;;;;;;;-2.40;99.90;;;;;;5019944;28;19925;-76
2022/12/11 10:13:25;;;;;;;;;;;-2.50;99.90;;;;;;5017183;28;20520;-73
2022/12/11 10:16:15;;;;;;;;;;;-2.40;99.90;;;;;;5001733;28;19930;-78
2022/12/11 10:18:47;;;;;;;;;;;-2.30;99.90;;;;;;5025366;28;19925;-74
2022/12/11 10:21:19;;;;;;;;;;;-2.10;99.90;;;;;;5037365;28;19925;-73
2022/12/11 10:23:58;;;;;;;;;;;-2.10;99.90;;;;;;5042800;28;20023;-73
2022/12/11 10:26:29;;;;;;;;;;;-2.10;99.90;;;;;;5029036;28;20408;-74
2022/12/11 10:29:01;;;;;;;;;;;-2.20;99.90;;;;;;5038116;28;19929;-74
2022/12/11 10:31:39;;;;;;;;;;;-2.20;99.90;;;;;;5016537;28;19932;-75
2022/12/11 10:34:13;;;;;;;;;;;-2.20;99.90;;;;;;5011738;28;19925;-74
2022/12/11 10:36:44;;;;;;;;;;;-2.20;99.90;;;;;;5039732;28;19929;-74
2022/12/11 10:39:20;;;;;;;;;;;-2.10;99.90;;;;;;5020753;28;19929;-74
2022/12/11 10:41:53;;;;;;;;;;;-2.00;99.90;;;;;;5036435;28;19925;-75
2022/12/11 10:44:26;;;;;;;;;;;-2.00;99.90;;;;;;5037492;28;19933;-74
2022/12/11 10:47:11;;;;;;;;;;;-1.90;99.90;;;;;;5015813;28;19928;-75
2022/12/11 10:49:50;;;;;;;;;;;-1.80;99.90;;;;;;5038981;28;19924;-74
2022/12/11 10:52:24;;;;;;;;;;;-1.80;99.90;;;;;;5012231;28;19925;-75
2022/12/11 10:55:01;;;;;;;;;;;-1.70;99.90;;;;;;5034459;28;19925;-74
2022/12/11 10:57:34;;;;;;;;;;;-1.60;99.90;;;;;;5038195;28;19987;-74
2022/12/11 11:00:06;;;;;;;;;;;-1.40;99.90;;;;;;5040798;28;19931;-74
2022/12/11 11:02:41;;;;;;;;;;;-1.30;99.90;;;;;;5027428;28;19925;-74
2022/12/11 11:05:26;;;;;;;;;;;-1.20;99.90;;;;;;5024743;28;20335;-74
2022/12/11 11:08:02;;;;;;;;;;;-1.30;99.90;;;;;;5038614;28;19933;-74
2022/12/11 11:10:34;;;;;;;;;;;-1.10;99.90;;;;;;5014716;28;20338;-74
2022/12/11 11:13:12;;;;;;;;;;;-1.10;99.90;;;;;;5029167;28;19932;-75
2022/12/11 11:15:43;;;;;;;;;;;-1.00;99.90;;;;;;5035021;28;19929;-74
2022/12/11 11:18:24;;;;;;;;;;;-1.10;99.90;;;;;;5030719;28;19979;-74
2022/12/11 11:20:55;;;;;;;;;;;-1.20;99.90;;;;;;5034851;28;20374;-76
2022/12/11 11:23:27;;;;;;;;;;;-1.20;99.90;;;;;;5035810;28;19929;-75
2022/12/11 11:26:00;;;;;;;;;;;-1.20;99.90;;;;;;5036475;28;19925;-75
2022/12/11 11:28:37;;;;;;;;;;;-1.30;99.90;;;;;;5035858;28;19956;-75
2022/12/11 11:31:11;;;;;;;;;;;-1.30;99.90;;;;;;5017592;28;19937;-75
2022/12/11 11:33:48;;;;;;;;;;;-1.20;99.90;;;;;;5013996;28;19925;-75
2022/12/11 11:36:25;;;;;;;;;;;-1.20;99.90;;;;;;5035647;28;19975;-74
2022/12/11 11:39:16;;;;;;;;;;;-1.20;99.90;;;;;;5029314;28;20323;-75
2022/12/11 11:41:57;;;;;;;;;;;-1.30;99.90;;;;;;5027336;28;19925;-76
2022/12/11 11:44:35;;;;;;;;;;;-1.30;99.90;;;;;;5031582;28;20342;-73
2022/12/11 11:47:16;;;;;;;;;;;-1.30;99.90;;;;;;5037317;28;20351;-75
2022/12/11 11:50:03;;;;;;;;;;;-1.30;99.90;;;;;;5026911;28;19932;-74
2022/12/11 11:52:40;;;;;;;;;;;-1.30;99.90;;;;;;5019429;28;19983;-75
2022/12/11 11:55:14;;;;;;;;;;;-1.30;99.90;;;;;;5034741;28;19929;-73
2022/12/11 11:57:54;;;;;;;;;;;-1.10;99.90;;;;;;5017128;28;19979;-74
2022/12/11 12:00:27;;;;;;;;;;;-1.10;99.90;;;;;;5037975;28;20269;-74
2022/12/11 12:03:00;;;;;;;;;;;-1.00;99.90;;;;;;5035725;28;20380;-77
2022/12/11 12:05:38;;;;;;;;;;;-0.90;99.90;;;;;;5034389;28;20016;-76
2022/12/11 12:08:14;;;;;;;;;;;-1.00;99.90;;;;;;5026373;28;19932;-76
2022/12/11 12:10:55;;;;;;;;;;;-0.90;99.90;;;;;;5019870;28;19925;-74
2022/12/11 12:13:45;;;;;;;;;;;-0.80;99.90;;;;;;5018350;28;19925;-74
2022/12/11 12:16:23;;;;;;;;;;;-0.70;99.90;;;;;;5018021;28;20352;-74
2022/12/11 12:19:00;;;;;;;;;;;-0.60;99.90;;;;;;5041937;28;19925;-75
2022/12/11 12:21:43;;;;;;;;;;;-0.70;99.90;;;;;;5014288;28;19979;-76
2022/12/11 12:24:15;;;;;;;;;;;-0.70;99.90;;;;;;5019795;28;20350;-75
2022/12/11 12:27:05;;;;;;;;;;;-0.60;99.90;;;;;;5024635;28;19924;-75
2022/12/11 12:29:47;;;;;;;;;;;-0.60;99.90;;;;;;5019114;28;20402;-75
2022/12/11 12:32:24;;;;;;;;;;;-0.50;99.90;;;;;;4987041;28;19925;-74
2022/12/11 12:35:07;;;;;;;;;;;-0.50;99.90;;;;;;5031296;28;20399;-75
2022/12/11 12:37:45;;;;;;;;;;;-0.50;99.90;;;;;;5018010;28;19929;-74
2022/12/11 12:40:31;;;;;;;;;;;-0.50;99.90;;;;;;5005980;28;19932;-75
2022/12/11 12:43:21;;;;;;;;;;;-0.50;99.90;;;;;;5031309;28;19932;-75
2022/12/11 12:46:02;;;;;;;;;;;-0.60;99.90;;;;;;5001659;28;19926;-75
2022/12/11 12:48:34;;;;;;;;;;;-0.70;99.90;;;;;;5015163;28;19992;-77
2022/12/11 12:51:06;;;;;;;;;;;-0.70;99.90;;;;;;5029317;28;19925;-74
2022/12/11 12:53:38;;;;;;;;;;;-0.70;99.90;;;;;;5016560;28;19926;-73
2022/12/11 12:56:10;;;;;;;;;;;-0.60;99.90;;;;;;5008705;28;19933;-75
2022/12/11 12:58:43;;;;;;;;;;;-0.60;99.90;;;;;;5027341;28;19925;-74
2022/12/11 13:01:23;;;;;;;;;;;-0.60;99.90;;;;;;4989690;28;19929;-76
2022/12/11 13:03:58;;;;;;;;;;;-0.70;99.90;;;;;;5033159;28;19929;-76
2022/12/11 13:06:33;;;;;;;;;;;-0.80;99.90;;;;;;5016626;28;19933;-74
2022/12/11 13:09:24;;;;;;;;;;;-0.80;99.90;;;;;;5019446;28;19929;-74
2022/12/11 13:11:59;;;;;;;;;;;-0.80;99.90;;;;;;5012492;28;19972;-75
2022/12/11 13:14:32;;;;;;;;;;;-0.80;99.90;;;;;;5024342;28;19925;-76
2022/12/11 13:17:22;;;;;;;;;;;-0.80;99.90;;;;;;5034300;28;20347;-75
2022/12/11 13:19:49;;;;;;;;;;;-0.90;99.90;;;;;;5041474;28;19971;-76
2022/12/11 13:22:22;;;;;;;;;;;-0.90;99.90;;;;;;5024960;28;19979;-73
2022/12/11 13:24:53;;;;;;;;;;;-0.80;99.90;;;;;;5039027;28;19925;-74
2022/12/11 13:27:45;;;;;;;;;;;-0.80;99.90;;;;;;4997950;28;19925;-75
2022/12/11 13:30:17;;;;;;;;;;;-0.80;99.90;;;;;;5011455;28;19925;-74
2022/12/11 13:32:51;;;;;;;;;;;-0.80;99.90;;;;;;5032661;28;19926;-74
2022/12/11 13:35:23;;;;;;;;;;;-0.90;99.90;;;;;;5009921;28;19929;-76
2022/12/11 13:37:58;;;;;;;;;;;-0.90;99.90;;;;;;5037124;28;19937;-75
2022/12/11 13:40:38;;;;;;;;;;;-0.90;99.90;;;;;;5029257;28;19926;-75
2022/12/11 13:43:27;;;;;;;;;;;-0.90;99.90;;;;;;5042572;28;19924;-77
2022/12/11 13:46:03;;;;;;;;;;;-0.90;99.90;;;;;;5012319;28;19929;-75
2022/12/11 13:48:36;;;;;;;;;;;-0.80;99.90;;;;;;5023505;28;20041;-76
2022/12/11 13:51:15;;;;;;;;;;;-0.90;99.90;;;;;;5010849;28;19926;-75
2022/12/11 13:53:47;;;;;;;;;;;-1.00;99.90;;;;;;5012252;28;19933;-75
2022/12/11 13:56:20;;;;;;;;;;;-1.00;99.90;;;;;;5014648;28;20476;-75
2022/12/11 13:58:52;;;;;;;;;;;-0.90;99.90;;;;;;5019612;28;19933;-75
2022/12/11 14:01:26;;;;;;;;;;;-1.00;99.90;;;;;;5024414;28;19925;-74
2022/12/11 14:04:00;;;;;;;;;;;-1.00;99.90;;;;;;5020124;28;19980;-75
2022/12/11 14:06:33;;;;;;;;;;;-1.10;99.90;;;;;;5044718;28;20281;-74
2022/12/11 14:09:05;;;;;;;;;;;-1.00;99.90;;;;;;5042913;28;19934;-76
2022/12/11 14:11:39;;;;;;;;;;;-1.10;99.90;;;;;;5035710;28;19986;-74
2022/12/11 14:14:17;;;;;;;;;;;-1.10;99.90;;;;;;5019552;28;19947;-76
2022/12/11 14:16:50;;;;;;;;;;;-1.20;99.90;;;;;;5045877;28;19975;-74
2022/12/11 14:19:22;;;;;;;;;;;-1.30;99.90;;;;;;5038949;28;20355;-75
2022/12/11 14:22:00;;;;;;;;;;;-1.20;99.90;;;;;;5032151;28;19925;-75
2022/12/11 14:24:31;;;;;;;;;;;-1.20;99.90;;;;;;5020348;28;19924;-74
2022/12/11 14:27:12;;;;;;;;;;;-1.20;99.90;;;;;;5022809;28;19940;-76
2022/12/11 14:29:44;;;;;;;;;;;-1.30;99.90;;;;;;5028825;28;19952;-73
2022/12/11 14:32:25;;;;;;;;;;;-1.30;99.90;;;;;;5026214;28;19925;-74
2022/12/11 14:34:57;;;;;;;;;;;-1.40;99.90;;;;;;5034320;28;19932;-75
2022/12/11 14:37:29;;;;;;;;;;;-1.50;99.90;;;;;;5034647;28;19971;-74
2022/12/11 14:40:01;;;;;;;;;;;-1.50;99.90;;;;;;5012504;28;20380;-75
2022/12/11 14:42:37;;;;;;;;;;;-1.50;99.90;;;;;;4994104;28;19925;-75
2022/12/11 14:45:17;;;;;;;;;;;-1.50;99.90;;;;;;5038569;28;19952;-75
2022/12/11 14:47:49;;;;;;;;;;;-1.50;99.90;;;;;;5030578;28;19994;-75
2022/12/11 14:50:27;;;;;;;;;;;-1.50;99.90;;;;;;5050635;28;19925;-74
2022/12/11 14:53:01;;;;;;;;;;;-1.50;99.90;;;;;;5020109;28;19933;-76
2022/12/11 14:55:34;;;;;;;;;;;-1.50;99.90;;;;;;5010589;28;19935;-75
2022/12/11 14:58:12;;;;;;;;;;;-1.50;99.90;;;;;;5024626;28;20311;-75
2022/12/11 15:00:54;;;;;;;;;;;-1.60;99.90;;;;;;5037502;28;19936;-75
2022/12/11 15:03:36;;;;;;;;;;;-1.60;99.90;;;;;;5018409;28;19929;-75
2022/12/11 15:06:43;;;;;;;;;;;-1.60;99.90;;;;;;5031418;28;20032;-75
2022/12/11 15:09:23;;;;;;;;;;;-1.60;99.90;;;;;;4987551;28;19930;-76
2022/12/11 15:11:57;;;;;;;;;;;-1.60;99.90;;;;;;5014039;28;19931;-75
2022/12/11 15:14:29;;;;;;;;;;;-1.60;99.90;;;;;;5041282;28;20567;-74